Terminal Aerodrome Forecast
Issued by NWS Northern Indiana

Home | Current Version | Previous Version | Graphics & Text | Print | Product List | Glossary On
Versions: 1 2 3 4 5 6 7 8 9 10 11 12 13 14 15 16 17
000
FTUS43 KIWX 072100 AAA
TAFFWA
TAF AMD
KFWA 072146Z 0722/0818 23012G20KT P6SM VCTS BKN040CB
     FM080000 31007KT P6SM BKN040
     FM080300 22007KT P6SM BKN040
     FM081200 22008KT 5SM -SHRA OVC030=

USA.gov is the U.S. government's official web portal to all federal, state and local government web resources and services.